Time;durP1;ratioP1;P1;durP2;ratioP2;P2;SDS_P1;SDS_P2;PMS_P1;PMS_P2;Temp;Humidity;BMP_temperature;BMP_pressure;BME280_temperature;BME280_humidity;BME280_pressure;Samples;Min_cycle;Max_cycle;Signal;HPM_P1;HPM_P2
2022/01/17 00:01:16;;;;;;;29.48;2.70;;;6.20;99.90;;;;;;5088180;28;20036;-75
2022/01/17 00:03:42;;;;;;;26.95;2.72;;;6.20;99.90;;;;;;5071279;28;20072;-73
2022/01/17 00:06:08;;;;;;;30.65;3.97;;;6.20;99.90;;;;;;5089543;28;20471;-73
2022/01/17 00:08:33;;;;;;;36.25;3.35;;;6.20;99.90;;;;;;5073014;28;20052;-73
2022/01/17 00:11:00;;;;;;;31.90;3.85;;;6.20;99.90;;;;;;5073586;28;20559;-75
2022/01/17 00:13:28;;;;;;;22.98;1.77;;;6.20;99.90;;;;;;5071583;28;20036;-73
2022/01/17 00:15:59;;;;;;;27.13;2.53;;;6.10;99.90;;;;;;5071944;28;20527;-74
2022/01/17 00:21:12;;;;;;;27.02;2.42;;;6.10;99.90;;;;;;5046299;28;20131;-73
2022/01/17 00:23:37;;;;;;;25.77;2.95;;;6.10;99.90;;;;;;5076612;28;20058;-75
2022/01/17 00:26:04;;;;;;;24.15;2.33;;;6.10;99.90;;;;;;5081180;28;20048;-73
2022/01/17 00:28:30;;;;;;;28.33;2.65;;;6.10;99.90;;;;;;5074482;28;20049;-75
2022/01/17 00:30:56;;;;;;;25.90;2.42;;;6.00;99.90;;;;;;5074245;28;20372;-75
2022/01/17 00:33:22;;;;;;;25.95;2.75;;;6.00;99.90;;;;;;5107366;28;20071;-75
2022/01/17 00:35:47;;;;;;;20.42;2.53;;;6.00;99.90;;;;;;5092580;28;20165;-73
2022/01/17 00:38:13;;;;;;;16.17;2.38;;;5.90;99.90;;;;;;5088593;28;20494;-75
2022/01/17 00:40:41;;;;;;;21.30;2.20;;;5.90;99.90;;;;;;5082283;28;20051;-75
2022/01/17 00:43:07;;;;;;;24.85;2.30;;;5.90;99.90;;;;;;5075791;28;20399;-75
2022/01/17 00:45:35;;;;;;;23.58;2.38;;;5.80;99.90;;;;;;5084269;28;20480;-76
2022/01/17 00:48:01;;;;;;;30.05;2.97;;;5.80;99.90;;;;;;5079382;28;20044;-76
2022/01/17 00:50:29;;;;;;;21.38;2.33;;;5.70;99.90;;;;;;5089511;28;20043;-76
2022/01/17 00:52:55;;;;;;;34.17;3.08;;;5.80;99.90;;;;;;5092480;28;20067;-75
2022/01/17 00:55:21;;;;;;;28.10;2.85;;;5.70;99.90;;;;;;5085913;28;20044;-75
2022/01/17 00:57:46;;;;;;;29.50;2.58;;;5.70;99.90;;;;;;5091780;28;20059;-75
2022/01/17 01:00:13;;;;;;;25.50;2.20;;;5.60;99.90;;;;;;5088987;28;20411;-75
2022/01/17 01:02:39;;;;;;;31.05;2.92;;;5.60;99.90;;;;;;5081045;28;20376;-74
2022/01/17 01:05:07;;;;;;;19.98;2.53;;;5.60;99.90;;;;;;5089962;28;20540;-74
2022/01/17 01:07:33;;;;;;;23.20;2.38;;;5.50;99.90;;;;;;5091865;28;20528;-76
2022/01/17 01:10:10;;;;;;;24.92;2.20;;;5.50;99.90;;;;;;5090545;28;20079;-75
2022/01/17 01:12:42;;;;;;;23.00;2.55;;;5.50;99.90;;;;;;5086051;28;20131;-75
2022/01/17 01:15:18;;;;;;;25.70;2.90;;;5.50;99.90;;;;;;5076505;28;20521;-75
2022/01/17 01:17:55;;;;;;;22.23;2.38;;;5.50;99.90;;;;;;5082773;28;20474;-75
2022/01/17 01:28:36;;;;;;;29.77;2.50;;;5.30;99.90;;;;;;5082557;28;20047;-74
2022/01/17 01:31:07;;;;;;;28.45;2.28;;;5.20;99.90;;;;;;5086631;28;20037;-74
2022/01/17 01:33:37;;;;;;;35.47;4.20;;;5.20;99.90;;;;;;5088568;28;20044;-74
2022/01/17 01:36:18;;;;;;;27.50;3.13;;;5.10;99.90;;;;;;5081464;28;20510;-75
2022/01/17 01:38:43;;;;;;;22.42;2.22;;;5.00;99.90;;;;;;5085242;28;20040;-74
2022/01/17 01:41:09;;;;;;;28.15;3.55;;;5.00;99.90;;;;;;5091226;28;20048;-75
2022/01/17 01:43:36;;;;;;;28.77;2.95;;;4.90;99.90;;;;;;5088915;28;20055;-74
2022/01/17 01:46:02;;;;;;;30.55;2.88;;;4.90;99.90;;;;;;5085444;28;20347;-74
2022/01/17 01:48:34;;;;;;;21.85;3.00;;;4.80;99.90;;;;;;5079299;28;20115;-74
2022/01/17 01:51:00;;;;;;;21.75;2.63;;;4.80;99.90;;;;;;5085517;28;20048;-75
2022/01/17 01:53:26;;;;;;;26.30;3.58;;;4.70;99.90;;;;;;5085383;28;20044;-74
2022/01/17 01:55:54;;;;;;;36.97;3.72;;;4.60;99.90;;;;;;5090063;28;20052;-73
2022/01/17 01:58:24;;;;;;;36.72;3.47;;;4.50;99.90;;;;;;5090289;28;20044;-73
2022/01/17 02:00:51;;;;;;;37.47;3.80;;;4.40;99.90;;;;;;5081447;28;20105;-73
2022/01/17 02:03:17;;;;;;;44.60;3.67;;;4.40;99.90;;;;;;5086417;28;20494;-73
2022/01/17 02:05:43;;;;;;;34.97;3.40;;;4.50;99.90;;;;;;5086830;28;20046;-73
2022/01/17 02:08:10;;;;;;;38.95;3.08;;;4.50;99.90;;;;;;5089309;28;20048;-74
2022/01/17 02:10:36;;;;;;;29.92;3.33;;;4.50;99.90;;;;;;5086104;28;20403;-74
2022/01/17 02:13:01;;;;;;;27.48;2.88;;;4.60;99.90;;;;;;5090530;28;20044;-75
2022/01/17 02:15:27;;;;;;;30.05;2.90;;;4.60;99.90;;;;;;5076807;28;20490;-74
2022/01/17 02:17:55;;;;;;;40.30;3.25;;;4.70;99.90;;;;;;5086357;28;20635;-74
2022/01/17 02:20:23;;;;;;;19.67;2.53;;;4.70;99.90;;;;;;5079040;28;20040;-73
2022/01/17 02:22:50;;;;;;;40.33;3.55;;;4.70;99.90;;;;;;5083328;28;20064;-72
2022/01/17 02:25:15;;;;;;;27.55;3.33;;;4.70;99.90;;;;;;5088885;28;20044;-73
2022/01/17 02:27:42;;;;;;;23.20;2.60;;;4.70;99.90;;;;;;5090053;28;20047;-73
2022/01/17 02:30:11;;;;;;;38.97;4.95;;;4.80;99.90;;;;;;5088942;28;20105;-74
2022/01/17 02:32:37;;;;;;;26.50;3.00;;;4.70;99.90;;;;;;5090155;28;20043;-73
2022/01/17 02:35:17;;;;;;;28.23;3.05;;;4.70;99.90;;;;;;5083235;28;20036;-73
2022/01/17 02:37:44;;;;;;;33.92;3.50;;;4.70;99.90;;;;;;5083963;28;20051;-72
2022/01/17 02:40:10;;;;;;;33.05;3.67;;;4.70;99.90;;;;;;5089681;28;20483;-74
2022/01/17 02:42:37;;;;;;;31.23;3.55;;;4.70;99.90;;;;;;5089738;28;20063;-75
2022/01/17 02:45:12;;;;;;;31.30;3.30;;;4.70;99.90;;;;;;5089298;28;20402;-73
2022/01/17 02:47:38;;;;;;;28.88;2.50;;;4.70;99.90;;;;;;5089390;28;20052;-73
2022/01/17 02:50:04;;;;;;;32.38;3.75;;;4.60;99.90;;;;;;5086359;28;20032;-72
2022/01/17 02:52:30;;;;;;;36.00;3.97;;;4.60;99.90;;;;;;5080450;28;20036;-73
2022/01/17 02:54:55;;;;;;;22.85;3.08;;;4.60;99.90;;;;;;5086364;28;20097;-73
2022/01/17 02:57:21;;;;;;;16.42;2.30;;;4.50;99.90;;;;;;5105225;28;20062;-73
2022/01/17 02:59:46;;;;;;;32.30;3.25;;;4.60;99.90;;;;;;5077080;28;20044;-74
2022/01/17 03:02:12;;;;;;;32.00;3.15;;;4.60;99.90;;;;;;5061358;28;20051;-74
2022/01/17 03:04:37;;;;;;;41.50;3.15;;;4.60;99.90;;;;;;5080129;28;20040;-75
2022/01/17 03:07:03;;;;;;;33.03;3.25;;;4.50;99.90;;;;;;5086919;28;20055;-72
2022/01/17 03:09:36;;;;;;;39.67;4.15;;;4.50;99.90;;;;;;5086581;28;20122;-72
2022/01/17 03:12:02;;;;;;;29.75;2.72;;;4.50;99.90;;;;;;5083788;28;20044;-72
2022/01/17 03:14:27;;;;;;;46.47;3.63;;;4.50;99.90;;;;;;5078792;28;20546;-73
2022/01/17 03:16:55;;;;;;;34.45;3.67;;;4.50;99.90;;;;;;5071090;28;20154;-73
2022/01/17 03:19:21;;;;;;;35.15;3.22;;;4.40;99.90;;;;;;5076040;28;20509;-73
2022/01/17 03:21:46;;;;;;;44.80;3.60;;;4.40;99.90;;;;;;5090179;28;20039;-72
2022/01/17 03:24:12;;;;;;;32.35;3.20;;;4.40;99.90;;;;;;5088964;28;20040;-73
2022/01/17 03:26:37;;;;;;;45.20;4.95;;;4.40;99.90;;;;;;5089779;28;20040;-73
2022/01/17 03:29:03;;;;;;;27.35;3.70;;;4.40;99.90;;;;;;5088404;28;20055;-74
2022/01/17 03:31:29;;;;;;;44.97;3.63;;;4.40;99.90;;;;;;5100038;28;20082;-73
2022/01/17 03:33:55;;;;;;;27.83;3.58;;;4.40;99.90;;;;;;5085725;28;20052;-74
2022/01/17 03:36:21;;;;;;;25.60;4.05;;;4.30;99.90;;;;;;5065613;28;20051;-73
2022/01/17 03:38:47;;;;;;;35.05;3.95;;;4.40;99.90;;;;;;5087727;28;20079;-72
2022/01/17 03:41:14;;;;;;;32.30;3.17;;;4.40;99.90;;;;;;5070899;28;20036;-73
2022/01/17 03:43:39;;;;;;;35.75;3.13;;;4.40;99.90;;;;;;5074526;28;20032;-73
2022/01/17 03:46:05;;;;;;;42.67;3.78;;;4.50;99.90;;;;;;5089580;28;20042;-73
2022/01/17 03:48:31;;;;;;;26.38;2.58;;;4.50;99.90;;;;;;5087835;28;20066;-74
2022/01/17 03:50:58;;;;;;;36.28;3.65;;;4.60;99.90;;;;;;5084691;28;20054;-73
2022/01/17 03:53:25;;;;;;;33.45;3.03;;;4.60;99.90;;;;;;5093006;28;20036;-71
2022/01/17 03:55:52;;;;;;;30.17;2.80;;;4.70;99.90;;;;;;5091762;28;20036;-73
2022/01/17 03:58:18;;;;;;;36.63;3.78;;;4.70;99.90;;;;;;5093732;28;20039;-71
2022/01/17 04:00:49;;;;;;;43.20;4.50;;;4.70;99.90;;;;;;5080660;28;20044;-72
2022/01/17 04:03:16;;;;;;;32.15;3.35;;;4.80;99.90;;;;;;5084801;28;20082;-73
2022/01/17 04:05:42;;;;;;;36.70;3.25;;;4.80;99.90;;;;;;5083823;28;20194;-73
2022/01/17 04:08:08;;;;;;;36.38;3.60;;;4.80;99.90;;;;;;5093171;28;20044;-73
2022/01/17 04:10:34;;;;;;;43.00;3.72;;;4.80;99.90;;;;;;5085431;28;20050;-72
2022/01/17 04:13:04;;;;;;;29.95;3.28;;;4.80;99.90;;;;;;5092671;28;20523;-73
2022/01/17 04:15:32;;;;;;;35.67;4.60;;;4.80;99.90;;;;;;5092586;28;20052;-72
2022/01/17 04:17:58;;;;;;;27.65;2.83;;;4.80;99.90;;;;;;5091314;28;20048;-73
2022/01/17 04:20:27;;;;;;;38.22;3.53;;;4.80;99.90;;;;;;5090231;28;20203;-72
2022/01/17 04:22:54;;;;;;;20.27;2.28;;;4.80;99.90;;;;;;5081301;28;20407;-72
2022/01/17 04:25:23;;;;;;;25.25;3.40;;;4.70;99.90;;;;;;5089055;28;20049;-72
2022/01/17 04:27:49;;;;;;;30.20;3.50;;;4.70;99.90;;;;;;5093382;28;20097;-73
2022/01/17 04:30:16;;;;;;;41.50;4.53;;;4.70;99.90;;;;;;5092506;28;20044;-73
2022/01/17 04:32:43;;;;;;;27.83;3.33;;;4.60;99.90;;;;;;5085689;28;20365;-73
2022/01/17 04:35:11;;;;;;;28.50;3.28;;;4.70;99.90;;;;;;5081761;28;20040;-73
2022/01/17 04:37:37;;;;;;;32.00;2.90;;;4.60;99.90;;;;;;5101869;28;20040;-73
2022/01/17 04:40:04;;;;;;;35.60;3.42;;;4.60;99.90;;;;;;5082544;28;20139;-73
2022/01/17 04:42:30;;;;;;;33.30;3.67;;;4.60;99.90;;;;;;5072966;28;20098;-73
2022/01/17 04:45:08;;;;;;;25.60;2.80;;;4.70;99.90;;;;;;5072719;28;20048;-72
2022/01/17 04:47:36;;;;;;;18.35;2.10;;;4.70;99.90;;;;;;5071860;28;20032;-74
2022/01/17 04:50:12;;;;;;;19.48;2.75;;;4.70;99.90;;;;;;5089049;28;20037;-74
2022/01/17 04:52:38;;;;;;;23.88;3.28;;;4.80;99.90;;;;;;5080810;28;20110;-73
2022/01/17 04:55:06;;;;;;;23.90;3.15;;;4.80;99.90;;;;;;5091329;28;20159;-73
2022/01/17 04:57:32;;;;;;;37.38;3.78;;;4.90;99.90;;;;;;5086428;28;20037;-70
2022/01/17 04:59:57;;;;;;;29.83;3.50;;;5.00;99.90;;;;;;5088783;28;20036;-72
2022/01/17 05:02:24;;;;;;;22.42;2.40;;;5.00;99.90;;;;;;5085071;28;20036;-72
2022/01/17 05:04:50;;;;;;;23.13;2.97;;;5.10;99.90;;;;;;5087030;28;20075;-74
2022/01/17 05:07:16;;;;;;;32.38;3.33;;;5.20;99.90;;;;;;5090529;28;20047;-74
2022/01/17 05:09:43;;;;;;;22.75;2.58;;;5.20;99.90;;;;;;5091354;28;20054;-73
2022/01/17 05:12:10;;;;;;;21.52;3.33;;;5.30;99.90;;;;;;5090562;28;20139;-71
2022/01/17 05:14:39;;;;;;;12.00;2.15;;;5.40;99.90;;;;;;5087018;28;20040;-74
2022/01/17 05:17:22;;;;;;;26.45;2.90;;;5.50;99.90;;;;;;5092237;28;20086;-73
2022/01/17 05:19:48;;;;;;;22.98;2.28;;;5.50;99.90;;;;;;5072077;28;20044;-74
2022/01/17 05:22:16;;;;;;;18.90;2.85;;;5.60;99.90;;;;;;5088762;28;20033;-74
2022/01/17 05:24:41;;;;;;;29.77;3.42;;;5.70;99.90;;;;;;5089164;28;20064;-72
2022/01/17 05:27:07;;;;;;;22.98;3.00;;;5.70;99.90;;;;;;5071634;28;20079;-72
2022/01/17 05:29:33;;;;;;;16.85;3.33;;;5.70;99.90;;;;;;5079978;28;20586;-73
2022/01/17 05:31:58;;;;;;;27.15;3.67;;;5.70;99.90;;;;;;5089319;28;20055;-74
2022/01/17 05:34:24;;;;;;;40.53;4.95;;;5.70;99.90;;;;;;5080137;28;20052;-72
2022/01/17 05:36:49;;;;;;;26.42;3.65;;;5.70;99.90;;;;;;5071721;28;20395;-72
2022/01/17 05:39:15;;;;;;;17.27;2.83;;;5.80;99.90;;;;;;5071180;28;20476;-72
2022/01/17 05:41:41;;;;;;;20.35;3.92;;;5.90;99.90;;;;;;5075681;28;20043;-74
2022/01/17 05:44:07;;;;;;;20.10;4.03;;;5.90;99.90;;;;;;5084197;28;20479;-73
2022/01/17 05:46:32;;;;;;;23.48;3.22;;;6.10;99.90;;;;;;5091600;28;20495;-71
2022/01/17 05:48:58;;;;;;;24.50;4.55;;;6.00;99.90;;;;;;5086116;28;20068;-74
2022/01/17 05:51:23;;;;;;;16.23;4.00;;;6.10;99.90;;;;;;5091663;28;20139;-72
2022/01/17 05:53:49;;;;;;;17.17;4.13;;;6.00;99.90;;;;;;5080316;28;20036;-71
2022/01/17 05:56:15;;;;;;;34.92;6.28;;;6.10;99.90;;;;;;5075712;28;20510;-73
2022/01/17 05:58:40;;;;;;;22.05;4.75;;;6.10;99.90;;;;;;5081048;28;20040;-74
2022/01/17 06:01:06;;;;;;;31.80;6.10;;;6.10;99.90;;;;;;5071344;28;20136;-73
2022/01/17 06:03:32;;;;;;;27.02;5.32;;;6.10;99.90;;;;;;5083104;28;20378;-73
2022/01/17 06:05:58;;;;;;;21.77;6.93;;;6.20;99.90;;;;;;5087685;28;20043;-73
2022/01/17 06:08:23;;;;;;;32.08;7.68;;;6.10;99.90;;;;;;5089848;28;20497;-70
2022/01/17 06:10:49;;;;;;;36.15;8.52;;;6.20;99.90;;;;;;5078329;28;20083;-71
2022/01/17 06:13:14;;;;;;;40.60;7.68;;;6.20;99.90;;;;;;5082134;28;20482;-73
2022/01/17 06:15:40;;;;;;;46.85;10.40;;;6.30;99.90;;;;;;5091563;28;20087;-71
2022/01/17 06:18:05;;;;;;;35.85;9.07;;;6.20;99.90;;;;;;5078898;28;20071;-71
2022/01/17 06:20:32;;;;;;;29.98;8.25;;;6.20;99.90;;;;;;5079012;28;20032;-72
2022/01/17 06:22:57;;;;;;;32.30;9.10;;;6.20;99.90;;;;;;5087648;28;20043;-73
2022/01/17 06:25:23;;;;;;;49.78;11.68;;;6.30;99.90;;;;;;5089604;28;20036;-72
2022/01/17 06:27:49;;;;;;;39.90;10.88;;;6.30;99.90;;;;;;5072877;28;20078;-70
2022/01/17 06:30:14;;;;;;;33.53;8.18;;;6.30;99.90;;;;;;5070550;28;20376;-72
2022/01/17 06:32:41;;;;;;;40.25;9.75;;;6.30;99.90;;;;;;5078243;28;20044;-72
2022/01/17 06:35:07;;;;;;;34.88;9.45;;;6.30;99.90;;;;;;5076803;28;20044;-71
2022/01/17 06:37:32;;;;;;;38.08;9.00;;;6.30;99.90;;;;;;5074428;28;20044;-74
2022/01/17 06:39:58;;;;;;;40.25;9.95;;;6.30;99.90;;;;;;5075804;28;20506;-72
2022/01/17 06:42:23;;;;;;;30.23;7.90;;;6.30;99.90;;;;;;5089585;28;20156;-72
2022/01/17 06:44:50;;;;;;;49.17;9.20;;;6.30;99.90;;;;;;5084947;28;20712;-71
2022/01/17 06:47:16;;;;;;;41.92;10.32;;;6.30;99.90;;;;;;5082365;28;20032;-71
2022/01/17 06:49:42;;;;;;;39.92;10.52;;;6.30;99.90;;;;;;5073714;28;20046;-73
2022/01/17 06:52:07;;;;;;;46.65;11.35;;;6.30;99.90;;;;;;5089968;28;20043;-71
2022/01/17 06:54:33;;;;;;;32.28;8.57;;;6.30;99.90;;;;;;5088326;28;20036;-73
2022/01/17 06:56:58;;;;;;;39.67;10.90;;;6.20;99.90;;;;;;5081228;28;20043;-72
2022/01/17 06:59:24;;;;;;;35.97;8.23;;;6.20;99.90;;;;;;5096829;28;20036;-71
2022/01/17 07:01:51;;;;;;;38.65;9.57;;;6.30;99.90;;;;;;5058888;28;20039;-72
2022/01/17 07:04:16;;;;;;;52.55;12.20;;;6.30;99.90;;;;;;5077400;28;20043;-72
2022/01/17 07:06:42;;;;;;;36.05;9.50;;;6.30;99.90;;;;;;5096757;28;20036;-70
2022/01/17 07:09:16;;;;;;;32.38;8.88;;;6.40;99.90;;;;;;5081682;28;20538;-71
2022/01/17 07:11:43;;;;;;;37.72;10.88;;;6.40;99.90;;;;;;5088362;28;20127;-70
2022/01/17 07:14:10;;;;;;;41.38;9.50;;;6.50;99.90;;;;;;5084170;28;20035;-71
2022/01/17 07:16:40;;;;;;;43.63;12.05;;;6.50;99.90;;;;;;5095259;28;20036;-73
2022/01/17 07:19:06;;;;;;;56.50;12.35;;;6.50;99.90;;;;;;5083614;28;20125;-71
2022/01/17 07:21:32;;;;;;;31.40;8.90;;;6.50;99.90;;;;;;5086755;28;20529;-72
2022/01/17 07:23:59;;;;;;;42.17;10.27;;;6.40;99.90;;;;;;5083769;28;20092;-70
2022/01/17 07:26:24;;;;;;;38.60;9.23;;;6.30;99.90;;;;;;5081893;28;20036;-72
2022/01/17 07:28:50;;;;;;;45.97;9.68;;;6.40;99.90;;;;;;5077571;28;20387;-72
2022/01/17 07:31:16;;;;;;;30.42;9.35;;;6.30;99.90;;;;;;5078631;28;20457;-72
2022/01/17 07:33:42;;;;;;;38.25;10.07;;;6.20;99.90;;;;;;5084380;28;20573;-73
2022/01/17 07:36:07;;;;;;;37.47;9.57;;;6.20;99.90;;;;;;5084973;28;20052;-72
2022/01/17 07:38:36;;;;;;;42.05;8.20;;;6.30;99.90;;;;;;5081633;28;20047;-73
2022/01/17 07:41:02;;;;;;;20.95;6.53;;;6.30;99.90;;;;;;5077553;28;20039;-72
2022/01/17 07:43:28;;;;;;;48.53;8.43;;;6.20;99.90;;;;;;5075451;28;20303;-70
2022/01/17 07:46:04;;;;;;;41.78;7.28;;;6.30;99.90;;;;;;5080989;28;20043;-71
2022/01/17 07:48:58;;;;;;;34.83;6.63;;;6.20;99.90;;;;;;5089405;28;20048;-72
2022/01/17 07:51:26;;;;;;;39.00;8.18;;;6.20;99.90;;;;;;5088304;28;20410;-72
2022/01/17 07:53:52;;;;;;;42.60;8.23;;;6.20;99.90;;;;;;5088584;28;20040;-71
2022/01/17 07:56:18;;;;;;;38.90;7.50;;;6.30;99.90;;;;;;5069655;28;20135;-74
2022/01/17 07:58:44;;;;;;;43.70;7.78;;;6.40;99.90;;;;;;5087675;28;20174;-74
2022/01/17 08:01:10;;;;;;;35.50;6.55;;;6.30;99.90;;;;;;5081563;28;20067;-74
2022/01/17 08:03:37;;;;;;;33.90;6.20;;;6.30;99.90;;;;;;5088087;28;20039;-71
2022/01/17 08:06:03;;;;;;;35.15;5.72;;;6.30;99.90;;;;;;5085963;28;20402;-69
2022/01/17 08:08:29;;;;;;;34.33;5.03;;;6.30;99.90;;;;;;5088831;28;20044;-73
2022/01/17 08:10:54;;;;;;;30.33;5.28;;;6.30;99.90;;;;;;5084606;28;20039;-72
2022/01/17 08:13:20;;;;;;;47.13;7.13;;;6.40;99.90;;;;;;5086349;28;20486;-72
2022/01/17 08:15:46;;;;;;;50.03;7.60;;;6.40;99.90;;;;;;5084726;28;20113;-74
2022/01/17 08:18:14;;;;;;;32.22;6.85;;;6.40;99.90;;;;;;5086393;28;20040;-75
2022/01/17 08:20:41;;;;;;;46.10;7.25;;;6.40;99.90;;;;;;5085345;28;20154;-74
2022/01/17 08:23:08;;;;;;;40.67;5.40;;;6.40;99.90;;;;;;5087186;28;20055;-72
2022/01/17 08:25:34;;;;;;;38.50;5.82;;;6.50;99.90;;;;;;5087481;28;20044;-71
2022/01/17 08:28:00;;;;;;;47.22;5.55;;;6.40;99.90;;;;;;5088276;28;20040;-74
2022/01/17 08:30:26;;;;;;;36.13;4.88;;;6.50;99.90;;;;;;5081430;28;20044;-73
2022/01/17 08:32:51;;;;;;;27.77;4.72;;;6.50;99.90;;;;;;5086694;28;20514;-73
2022/01/17 08:35:19;;;;;;;27.00;4.60;;;6.60;99.90;;;;;;5064250;28;20554;-76
2022/01/17 08:37:44;;;;;;;24.23;4.18;;;6.60;99.90;;;;;;5086609;28;20037;-74
2022/01/17 08:40:10;;;;;;;41.25;4.13;;;6.60;99.90;;;;;;5093769;28;20040;-72
2022/01/17 08:42:38;;;;;;;50.03;5.50;;;6.70;99.90;;;;;;5087268;28;20390;-73
2022/01/17 08:45:07;;;;;;;42.33;4.45;;;6.70;99.90;;;;;;5083999;28;20032;-73
2022/01/17 08:47:32;;;;;;;38.22;4.72;;;6.80;99.90;;;;;;5088801;28;20072;-71
2022/01/17 08:49:58;;;;;;;43.17;5.72;;;6.80;99.90;;;;;;5087123;28;20063;-72
2022/01/17 08:52:25;;;;;;;35.75;4.88;;;6.90;99.90;;;;;;5079675;28;20047;-73
2022/01/17 08:54:50;;;;;;;46.10;5.63;;;6.90;99.90;;;;;;5078102;28;20035;-75
2022/01/17 08:57:17;;;;;;;40.90;5.63;;;6.90;99.90;;;;;;5081205;28;20044;-72
2022/01/17 08:59:44;;;;;;;51.03;6.05;;;7.00;99.90;;;;;;5088820;28;20045;-70
2022/01/17 09:02:10;;;;;;;40.40;6.60;;;7.00;99.90;;;;;;5098144;27;20035;-73
2022/01/17 09:04:40;;;;;;;36.67;4.78;;;7.10;99.90;;;;;;5086405;28;20032;-73
2022/01/17 09:07:10;;;;;;;47.10;7.22;;;7.10;99.90;;;;;;5094509;28;20041;-73
2022/01/17 09:09:37;;;;;;;41.35;5.68;;;7.20;99.90;;;;;;5091409;28;20066;-73
2022/01/17 09:12:04;;;;;;;39.35;5.57;;;7.20;99.90;;;;;;5078052;28;20044;-74
2022/01/17 09:14:29;;;;;;;29.23;4.13;;;7.20;99.90;;;;;;5101402;28;20048;-74
2022/01/17 09:16:55;;;;;;;44.30;7.32;;;7.30;99.90;;;;;;5092614;28;20040;-76
2022/01/17 09:19:20;;;;;;;35.42;5.28;;;7.30;99.90;;;;;;5087389;28;20454;-74
2022/01/17 09:21:46;;;;;;;30.80;4.82;;;7.30;99.90;;;;;;5082902;28;20032;-74
2022/01/17 09:24:11;;;;;;;25.48;3.83;;;7.40;99.90;;;;;;5072383;28;20493;-76
2022/01/17 09:26:37;;;;;;;29.17;4.15;;;7.40;99.90;;;;;;5089042;28;20467;-73
2022/01/17 09:29:03;;;;;;;36.53;4.03;;;7.40;99.90;;;;;;5060185;28;20052;-76
2022/01/17 09:31:28;;;;;;;40.55;5.35;;;7.50;99.90;;;;;;5079044;28;20039;-73
2022/01/17 09:33:54;;;;;;;39.40;4.38;;;7.60;99.90;;;;;;5091900;28;20039;-75
2022/01/17 09:36:21;;;;;;;28.90;4.38;;;7.60;99.90;;;;;;5091262;28;20048;-74
2022/01/17 09:38:47;;;;;;;42.38;4.38;;;7.60;99.90;;;;;;5090844;28;20040;-75
2022/01/17 09:41:12;;;;;;;29.35;4.30;;;7.70;99.90;;;;;;5091779;28;20044;-74
2022/01/17 09:43:38;;;;;;;35.05;4.10;;;7.80;99.90;;;;;;5089695;28;20120;-74
2022/01/17 09:46:06;;;;;;;52.95;5.65;;;7.90;99.90;;;;;;5077465;28;20037;-72
2022/01/17 09:48:36;;;;;;;31.67;4.03;;;7.90;99.90;;;;;;5083810;28;20068;-71
2022/01/17 09:51:15;;;;;;;29.98;3.42;;;8.00;99.90;;;;;;5097155;28;20052;-76
2022/01/17 09:53:42;;;;;;;42.42;5.75;;;8.00;99.90;;;;;;5057549;28;20036;-71
2022/01/17 09:56:08;;;;;;;38.40;4.53;;;8.00;99.90;;;;;;5078749;28;20044;-74
2022/01/17 09:58:39;;;;;;;39.42;4.65;;;8.10;99.90;;;;;;5084947;28;20040;-74
2022/01/17 10:01:04;;;;;;;34.03;4.15;;;8.10;99.90;;;;;;5089431;28;20071;-72
2022/01/17 10:03:31;;;;;;;29.90;3.95;;;8.10;99.90;;;;;;5092408;28;20075;-70
2022/01/17 10:05:57;;;;;;;30.67;3.88;;;8.10;99.90;;;;;;5080835;28;20051;-72
2022/01/17 10:08:23;;;;;;;30.70;4.05;;;8.20;99.90;;;;;;5082032;28;20059;-75
2022/01/17 10:10:57;;;;;;;29.77;3.70;;;8.20;99.90;;;;;;5083850;28;20399;-72
2022/01/17 10:13:37;;;;;;;42.90;4.88;;;8.20;99.90;;;;;;5082095;28;20086;-73
2022/01/17 10:16:10;;;;;;;33.75;5.00;;;8.30;99.90;;;;;;5086895;28;20402;-74
2022/01/17 10:18:51;;;;;;;42.70;4.97;;;8.30;99.90;;;;;;5086491;28;20046;-72
2022/01/17 10:21:34;;;;;;;48.13;5.40;;;8.30;99.90;;;;;;5089314;28;20435;-73
2022/01/17 10:37:17;;;;;;;30.90;4.60;;;8.40;99.90;;;;;;5081364;28;20051;-73
2022/01/17 10:40:03;;;;;;;61.63;5.65;;;8.50;99.90;;;;;;5064564;28;20051;-75
2022/01/17 10:42:35;;;;;;;39.58;4.43;;;8.50;99.90;;;;;;5083809;28;20158;-75
2022/01/17 10:45:19;;;;;;;30.53;3.97;;;8.50;99.90;;;;;;5075805;28;20036;-76
2022/01/17 10:47:46;;;;;;;39.13;5.00;;;8.60;99.90;;;;;;5079239;28;20287;-71
2022/01/17 10:50:20;;;;;;;44.63;3.88;;;8.70;99.90;;;;;;5080301;28;20433;-74
2022/01/17 10:52:51;;;;;;;48.92;4.82;;;8.70;99.90;;;;;;5072187;28;20041;-76
2022/01/17 10:55:35;;;;;;;33.90;4.70;;;8.80;99.90;;;;;;5078259;28;20044;-77
2022/01/17 10:58:08;;;;;;;44.95;5.88;;;8.70;99.90;;;;;;5090354;28;20139;-76
2022/01/17 11:00:40;;;;;;;55.20;6.22;;;8.70;99.90;;;;;;5089613;28;20040;-74
2022/01/17 11:03:09;;;;;;;54.80;5.68;;;8.90;99.90;;;;;;5086474;28;20455;-73
2022/01/17 11:05:39;;;;;;;37.25;5.18;;;9.00;99.90;;;;;;5089238;28;20122;-73
2022/01/17 11:08:05;;;;;;;47.20;5.97;;;9.00;99.90;;;;;;5088346;28;20043;-73
2022/01/17 11:10:32;;;;;;;45.05;4.95;;;9.10;99.90;;;;;;5065212;28;20536;-73
2022/01/17 11:13:04;;;;;;;52.08;6.50;;;9.20;99.90;;;;;;5087929;28;20147;-74
2022/01/17 11:15:32;;;;;;;46.45;5.75;;;9.30;99.90;;;;;;5076696;28;20048;-79
2022/01/17 11:18:15;;;;;;;41.70;5.43;;;9.30;99.90;;;;;;5103151;28;20042;-75
2022/01/17 11:20:40;;;;;;;45.17;4.82;;;9.30;99.90;;;;;;5076900;28;20043;-74
2022/01/17 11:23:06;;;;;;;59.33;5.22;;;9.30;99.90;;;;;;5088790;28;20040;-71
2022/01/17 11:25:36;;;;;;;48.30;5.68;;;9.30;99.90;;;;;;5083011;28;20086;-74
2022/01/17 11:28:04;;;;;;;51.97;6.10;;;9.30;99.90;;;;;;5076275;28;20040;-73
2022/01/17 11:30:30;;;;;;;46.70;4.97;;;9.40;99.90;;;;;;5088742;28;20154;-76
2022/01/17 11:32:59;;;;;;;50.03;6.07;;;9.30;99.90;;;;;;5079985;28;20041;-72
2022/01/17 11:35:25;;;;;;;37.90;4.78;;;9.40;99.90;;;;;;5088642;28;20063;-73
2022/01/17 11:37:56;;;;;;;52.47;7.82;;;9.40;99.90;;;;;;5087186;28;21919;-77
2022/01/17 11:40:33;;;;;;;72.05;7.47;;;9.40;99.90;;;;;;5087905;28;20032;-72
2022/01/17 11:43:00;;;;;;;50.58;5.15;;;9.40;99.90;;;;;;5088527;28;20032;-73
2022/01/17 11:45:29;;;;;;;44.65;4.60;;;9.30;99.90;;;;;;5088174;28;20129;-72
2022/01/17 11:47:59;;;;;;;50.85;5.18;;;9.30;99.90;;;;;;5075696;28;20517;-74
2022/01/17 11:50:28;;;;;;;55.50;5.32;;;9.40;99.90;;;;;;5080632;28;20169;-72
2022/01/17 11:53:17;;;;;;;59.17;7.78;;;9.50;99.90;;;;;;5083275;28;20112;-71
2022/01/17 11:55:43;;;;;;;45.08;6.28;;;9.60;99.90;;;;;;5076258;28;20557;-71
2022/01/17 11:58:27;;;;;;;57.20;6.63;;;9.60;99.90;;;;;;5085000;28;20119;-74
2022/01/17 12:01:01;;;;;;;35.08;4.55;;;9.70;99.90;;;;;;5083218;28;20083;-75
2022/01/17 12:03:47;;;;;;;58.90;7.90;;;9.70;99.90;;;;;;5087613;28;20040;-78
2022/01/17 12:06:34;;;;;;;45.45;5.30;;;9.80;99.90;;;;;;5088278;28;20051;-75
2022/01/17 12:09:23;;;;;;;45.55;5.22;;;9.80;99.90;;;;;;5101820;28;20048;-75
2022/01/17 12:12:10;;;;;;;55.17;6.25;;;9.80;99.90;;;;;;5089516;28;20040;-74
2022/01/17 12:14:40;;;;;;;60.35;6.63;;;9.80;99.90;;;;;;5091234;28;20052;-77
2022/01/17 12:17:23;;;;;;;46.10;5.68;;;9.80;99.90;;;;;;5092666;28;20036;-76
2022/01/17 12:20:09;;;;;;;61.65;6.45;;;9.80;99.90;;;;;;5089471;28;20422;-72
2022/01/17 12:22:43;;;;;;;56.33;6.00;;;9.90;99.90;;;;;;5087288;28;20035;-70
2022/01/17 12:25:22;;;;;;;46.03;5.78;;;9.90;99.90;;;;;;5090999;28;20180;-72
2022/01/17 12:27:48;;;;;;;69.05;8.63;;;9.90;99.90;;;;;;5073089;28;20066;-71
2022/01/17 12:30:15;;;;;;;71.03;8.15;;;9.90;99.90;;;;;;5087032;28;20040;-73
2022/01/17 12:32:45;;;;;;;49.17;5.68;;;9.90;99.90;;;;;;5084008;28;20054;-73
2022/01/17 12:35:16;;;;;;;74.13;8.30;;;10.00;99.90;;;;;;5086435;28;20036;-70
2022/01/17 12:37:43;;;;;;;51.80;7.28;;;10.00;99.90;;;;;;5084664;28;20036;-74
2022/01/17 12:40:34;;;;;;;55.47;5.63;;;10.00;99.90;;;;;;5083287;28;20044;-74
2022/01/17 12:43:06;;;;;;;63.75;7.10;;;9.90;99.90;;;;;;5093271;28;20047;-71
2022/01/17 12:45:32;;;;;;;53.78;6.15;;;10.00;99.90;;;;;;5089771;28;20042;-71
2022/01/17 12:47:59;;;;;;;64.65;6.63;;;9.90;99.90;;;;;;5087348;28;20032;-71
2022/01/17 12:50:27;;;;;;;54.47;6.22;;;9.90;99.90;;;;;;5091265;28;20036;-72
2022/01/17 12:52:57;;;;;;;46.83;6.20;;;9.90;99.90;;;;;;5091107;28;20055;-72
2022/01/17 12:55:26;;;;;;;76.28;6.53;;;9.90;99.90;;;;;;5097335;28;20044;-73
2022/01/17 12:57:52;;;;;;;45.47;5.00;;;9.90;99.90;;;;;;5086686;28;20482;-75
2022/01/17 13:00:19;;;;;;;83.93;8.18;;;9.90;99.90;;;;;;5081299;28;20051;-75
2022/01/17 13:02:47;;;;;;;42.13;5.72;;;9.90;99.90;;;;;;5091172;28;20089;-71
2022/01/17 13:05:14;;;;;;;83.22;9.07;;;9.90;99.90;;;;;;5089431;28;20040;-75
2022/01/17 13:07:42;;;;;;;60.55;6.97;;;9.80;99.90;;;;;;5091251;28;20395;-71
2022/01/17 13:10:10;;;;;;;63.35;5.72;;;9.80;99.90;;;;;;5093954;28;20028;-74
2022/01/17 13:12:35;;;;;;;68.50;8.35;;;9.80;99.90;;;;;;5112759;28;20043;-70
2022/01/17 13:15:01;;;;;;;59.97;7.43;;;9.80;99.90;;;;;;5103393;28;20039;-74